Time;durP1;ratioP1;P1;durP2;ratioP2;P2;SDS_P1;SDS_P2;PMS_P1;PMS_P2;Temp;Humidity;BMP_temperature;BMP_pressure;BME280_temperature;BME280_humidity;BME280_pressure;Samples;Min_cycle;Max_cycle;Signal;HPM_P1;HPM_P2
2024/02/29 00:01:29;;;;;;;15.25;5.13;;;;;;;;;;5074277;28;20024;-58
2024/02/29 00:03:55;;;;;;;13.55;5.95;;;;;;;;;;5068914;28;20028;-61
2024/02/29 00:06:21;;;;;;;16.10;5.45;;;;;;;;;;5068918;28;20093;-61
2024/02/29 00:08:47;;;;;;;17.65;6.47;;;;;;;;;;5068680;28;20078;-61
2024/02/29 00:11:13;;;;;;;14.13;5.80;;;;;;;;;;5072631;28;20036;-61
2024/02/29 00:13:39;;;;;;;15.02;5.40;;;;;;;;;;5069968;28;20064;-61
2024/02/29 00:16:05;;;;;;;17.88;6.30;;;;;;;;;;5052437;28;20066;-60
2024/02/29 00:18:30;;;;;;;15.88;6.60;;;;;;;;;;5076964;28;20537;-62
2024/02/29 00:20:56;;;;;;;13.23;5.38;;;;;;;;;;5070143;28;20052;-59
2024/02/29 00:23:22;;;;;;;16.98;6.00;;;;;;;;;;5072040;28;20035;-60
2024/02/29 00:25:48;;;;;;;21.70;6.72;;;;;;;;;;5071912;28;20032;-61
2024/02/29 00:28:14;;;;;;;28.75;7.15;;;;;;;;;;5072655;28;20028;-61
2024/02/29 00:30:40;;;;;;;23.20;6.97;;;;;;;;;;5074446;28;20028;-60
2024/02/29 00:33:06;;;;;;;14.98;6.35;;;;;;;;;;5071946;28;20043;-61
2024/02/29 00:35:32;;;;;;;11.57;5.80;;;;;;;;;;5055279;28;20028;-60
2024/02/29 00:37:58;;;;;;;14.75;5.97;;;;;;;;;;5074915;28;20103;-60
2024/02/29 00:40:24;;;;;;;15.93;6.10;;;;;;;;;;5050681;28;20108;-60
2024/02/29 00:42:50;;;;;;;15.52;6.25;;;;;;;;;;5068153;28;20166;-59
2024/02/29 00:45:16;;;;;;;17.42;6.88;;;;;;;;;;5072063;28;20109;-60
2024/02/29 00:47:42;;;;;;;18.08;7.10;;;;;;;;;;5064430;28;20029;-60
2024/02/29 00:50:08;;;;;;;19.20;6.57;;;;;;;;;;5070323;28;20025;-62
2024/02/29 00:52:34;;;;;;;20.45;6.53;;;;;;;;;;5067560;28;20439;-60
2024/02/29 00:55:02;;;;;;;26.95;6.45;;;;;;;;;;5076001;28;20035;-61
2024/02/29 00:57:28;;;;;;;15.95;5.70;;;;;;;;;;5051965;28;20465;-61
2024/02/29 00:59:54;;;;;;;23.75;8.02;;;;;;;;;;5075720;28;20500;-59
2024/02/29 01:02:20;;;;;;;13.27;5.55;;;;;;;;;;5058793;28;20565;-61
2024/02/29 01:04:45;;;;;;;22.58;6.80;;;;;;;;;;5073189;28;20110;-60
2024/02/29 01:07:11;;;;;;;19.67;6.30;;;;;;;;;;5061698;28;20043;-60
2024/02/29 01:09:37;;;;;;;12.43;5.57;;;;;;;;;;5073819;28;20475;-62
2024/02/29 01:12:03;;;;;;;16.77;6.03;;;;;;;;;;5068135;28;20070;-61
2024/02/29 01:14:29;;;;;;;21.83;6.82;;;;;;;;;;5073811;28;20104;-60
2024/02/29 01:16:56;;;;;;;16.77;4.90;;;;;;;;;;5070386;28;20482;-59
2024/02/29 01:19:22;;;;;;;14.40;5.78;;;;;;;;;;5080725;28;20020;-60
2024/02/29 01:21:48;;;;;;;12.52;6.05;;;;;;;;;;5071437;28;20062;-60
2024/02/29 01:24:14;;;;;;;16.02;5.75;;;;;;;;;;5076784;28;20078;-60
2024/02/29 01:26:40;;;;;;;14.82;6.72;;;;;;;;;;5065552;28;20028;-60
2024/02/29 01:29:06;;;;;;;12.27;5.60;;;;;;;;;;5067486;28;20036;-61
2024/02/29 01:31:32;;;;;;;16.23;6.70;;;;;;;;;;5069056;28;20096;-60
2024/02/29 01:33:58;;;;;;;16.65;6.88;;;;;;;;;;5077204;28;20551;-60
2024/02/29 01:36:24;;;;;;;17.10;6.18;;;;;;;;;;5064508;28;20024;-60
2024/02/29 01:38:50;;;;;;;16.80;5.55;;;;;;;;;;5074351;28;20024;-59
2024/02/29 01:41:18;;;;;;;11.68;5.03;;;;;;;;;;5068428;28;20021;-61
2024/02/29 01:43:53;;;;;;;18.83;6.72;;;;;;;;;;5072774;28;20024;-61
2024/02/29 01:46:20;;;;;;;10.70;4.82;;;;;;;;;;5067345;28;20049;-61
2024/02/29 01:48:49;;;;;;;14.90;5.32;;;;;;;;;;5068482;28;20028;-59
2024/02/29 01:51:18;;;;;;;26.60;5.82;;;;;;;;;;5070520;28;20032;-62
2024/02/29 01:53:44;;;;;;;14.57;5.43;;;;;;;;;;5064044;28;20059;-60
2024/02/29 01:56:12;;;;;;;14.48;5.97;;;;;;;;;;5068077;28;20060;-59
2024/02/29 01:58:40;;;;;;;13.15;5.65;;;;;;;;;;5066863;28;20017;-59
2024/02/29 02:01:06;;;;;;;20.30;7.05;;;;;;;;;;5067164;28;20082;-59
2024/02/29 02:03:32;;;;;;;15.25;6.57;;;;;;;;;;5061630;28;20056;-57
2024/02/29 02:05:58;;;;;;;18.38;5.60;;;;;;;;;;5063834;28;20033;-61
2024/02/29 02:08:26;;;;;;;14.60;5.47;;;;;;;;;;5069066;28;20031;-61
2024/02/29 02:10:52;;;;;;;20.92;7.05;;;;;;;;;;5071639;28;20020;-60
2024/02/29 02:13:18;;;;;;;16.23;6.18;;;;;;;;;;5065655;28;20029;-60
2024/02/29 02:15:44;;;;;;;15.93;6.35;;;;;;;;;;5071027;28;20016;-59
2024/02/29 02:18:10;;;;;;;14.48;6.28;;;;;;;;;;5053941;28;20020;-59
2024/02/29 02:20:36;;;;;;;15.30;6.47;;;;;;;;;;5069063;28;20529;-59
2024/02/29 02:23:02;;;;;;;11.70;5.85;;;;;;;;;;5072391;28;20028;-59
2024/02/29 02:25:28;;;;;;;19.02;6.28;;;;;;;;;;5070480;28;20501;-60
2024/02/29 02:27:54;;;;;;;15.98;5.85;;;;;;;;;;5067234;28;20082;-61
2024/02/29 02:30:20;;;;;;;27.40;8.02;;;;;;;;;;5070577;28;20494;-58
2024/02/29 02:32:46;;;;;;;20.48;6.85;;;;;;;;;;5072815;28;20032;-61
2024/02/29 02:35:12;;;;;;;15.55;6.43;;;;;;;;;;5070471;28;20150;-60
2024/02/29 02:37:38;;;;;;;22.30;7.97;;;;;;;;;;5069298;28;20029;-62
2024/02/29 02:40:05;;;;;;;17.20;6.22;;;;;;;;;;5076199;28;20032;-62
2024/02/29 02:42:31;;;;;;;18.67;6.85;;;;;;;;;;5070972;28;20119;-62
2024/02/29 02:44:57;;;;;;;22.05;6.70;;;;;;;;;;5075887;28;20078;-59
2024/02/29 02:47:23;;;;;;;14.30;5.90;;;;;;;;;;5070056;28;20091;-59
2024/02/29 02:49:49;;;;;;;21.77;6.72;;;;;;;;;;5067852;28;20037;-61
2024/02/29 02:52:15;;;;;;;20.58;6.25;;;;;;;;;;5071043;28;20056;-61
2024/02/29 02:54:41;;;;;;;16.85;6.60;;;;;;;;;;5072510;28;20095;-59
2024/02/29 02:57:08;;;;;;;19.50;6.55;;;;;;;;;;5070547;28;20032;-59
2024/02/29 02:59:34;;;;;;;20.17;6.93;;;;;;;;;;5051960;28;20205;-60
2024/02/29 03:02:00;;;;;;;15.70;5.97;;;;;;;;;;5071572;28;20028;-57
2024/02/29 03:04:25;;;;;;;24.23;7.13;;;;;;;;;;5070978;28;20028;-61
2024/02/29 03:06:51;;;;;;;16.25;6.07;;;;;;;;;;5068200;28;20082;-59
2024/02/29 03:09:17;;;;;;;21.00;7.10;;;;;;;;;;5068541;28;20111;-60
2024/02/29 03:11:44;;;;;;;23.00;7.72;;;;;;;;;;5077048;28;20020;-60
2024/02/29 03:14:10;;;;;;;19.48;7.82;;;;;;;;;;5070249;28;20441;-61
2024/02/29 03:16:36;;;;;;;22.92;8.07;;;;;;;;;;5075641;28;20028;-61
2024/02/29 03:19:04;;;;;;;29.23;7.82;;;;;;;;;;5068728;28;20033;-60
2024/02/29 03:21:30;;;;;;;17.70;5.85;;;;;;;;;;5075027;28;20185;-58
2024/02/29 03:23:56;;;;;;;14.48;6.70;;;;;;;;;;5073586;28;20149;-59
2024/02/29 03:26:22;;;;;;;21.33;7.78;;;;;;;;;;5070692;28;20023;-59
2024/02/29 03:28:48;;;;;;;25.45;7.40;;;;;;;;;;5069690;28;20028;-58
2024/02/29 03:31:14;;;;;;;27.92;8.48;;;;;;;;;;5069447;28;20032;-59
2024/02/29 03:33:40;;;;;;;23.05;7.80;;;;;;;;;;5073950;28;20029;-59
2024/02/29 03:36:06;;;;;;;19.65;7.60;;;;;;;;;;5068825;28;20029;-60
2024/02/29 03:38:32;;;;;;;22.95;7.60;;;;;;;;;;5070776;28;20025;-58
2024/02/29 03:40:58;;;;;;;28.20;8.65;;;;;;;;;;5070430;28;20123;-59
2024/02/29 03:43:24;;;;;;;31.10;8.77;;;;;;;;;;5070237;28;20165;-58
2024/02/29 03:45:51;;;;;;;23.92;8.52;;;;;;;;;;5071134;28;20047;-60
2024/02/29 03:48:17;;;;;;;17.70;6.90;;;;;;;;;;5067051;28;20462;-59
2024/02/29 03:50:43;;;;;;;25.15;8.35;;;;;;;;;;5073930;28;20028;-58
2024/02/29 03:53:09;;;;;;;21.52;6.70;;;;;;;;;;5066463;28;20115;-60
2024/02/29 03:55:35;;;;;;;17.27;7.15;;;;;;;;;;5065770;28;20025;-60
2024/02/29 03:58:01;;;;;;;20.58;7.57;;;;;;;;;;5064066;28;20025;-55
2024/02/29 04:00:27;;;;;;;24.25;7.95;;;;;;;;;;5065256;28;20560;-59
2024/02/29 04:02:52;;;;;;;21.20;7.80;;;;;;;;;;5065974;28;20020;-60
2024/02/29 04:05:23;;;;;;;20.83;6.75;;;;;;;;;;5064272;28;20036;-60
2024/02/29 04:07:50;;;;;;;20.08;6.93;;;;;;;;;;5067420;28;20044;-60
2024/02/29 04:10:16;;;;;;;17.17;6.22;;;;;;;;;;5067186;28;20104;-58
2024/02/29 04:12:42;;;;;;;16.95;6.72;;;;;;;;;;5065200;28;20161;-57
2024/02/29 04:15:09;;;;;;;19.73;6.80;;;;;;;;;;5060752;28;20512;-59
2024/02/29 04:17:35;;;;;;;16.63;6.10;;;;;;;;;;5064846;28;20145;-60
2024/02/29 04:20:00;;;;;;;12.82;6.03;;;;;;;;;;5064888;28;20112;-60
2024/02/29 04:22:26;;;;;;;17.55;6.43;;;;;;;;;;5072155;28;20035;-60
2024/02/29 04:24:52;;;;;;;15.77;5.90;;;;;;;;;;5074521;28;20025;-60
2024/02/29 04:27:18;;;;;;;17.27;6.85;;;;;;;;;;5063544;28;20040;-61
2024/02/29 04:29:46;;;;;;;17.17;6.95;;;;;;;;;;5077948;28;20020;-61
2024/02/29 04:32:12;;;;;;;20.27;6.88;;;;;;;;;;5073844;28;20023;-58
2024/02/29 04:34:37;;;;;;;20.77;7.30;;;;;;;;;;5065207;28;20024;-60
2024/02/29 04:37:04;;;;;;;19.10;6.72;;;;;;;;;;5065354;28;20025;-59
2024/02/29 04:39:30;;;;;;;17.70;6.78;;;;;;;;;;5066344;28;20017;-59
2024/02/29 04:41:56;;;;;;;16.77;5.82;;;;;;;;;;5065757;28;20099;-61
2024/02/29 04:44:22;;;;;;;18.25;6.40;;;;;;;;;;5073182;28;20040;-61
2024/02/29 04:46:48;;;;;;;19.75;7.00;;;;;;;;;;5071401;28;20028;-60
2024/02/29 04:49:14;;;;;;;20.30;6.78;;;;;;;;;;5069729;28;20036;-59
2024/02/29 04:51:39;;;;;;;22.60;7.57;;;;;;;;;;5067674;28;20078;-60
2024/02/29 04:54:05;;;;;;;20.52;6.53;;;;;;;;;;5067498;28;20063;-58
2024/02/29 04:56:32;;;;;;;23.63;7.53;;;;;;;;;;5071450;28;20024;-59
2024/02/29 04:58:58;;;;;;;18.15;7.50;;;;;;;;;;5070935;28;20031;-59
2024/02/29 05:01:23;;;;;;;22.65;6.95;;;;;;;;;;5072546;28;20016;-60
2024/02/29 05:03:49;;;;;;;20.95;7.03;;;;;;;;;;5070514;28;20498;-59
2024/02/29 05:06:16;;;;;;;21.52;8.23;;;;;;;;;;5074678;28;20024;-59
2024/02/29 05:08:43;;;;;;;25.17;8.60;;;;;;;;;;5075413;28;20032;-59
2024/02/29 05:11:10;;;;;;;19.30;6.47;;;;;;;;;;5069330;28;20036;-61
2024/02/29 05:13:36;;;;;;;27.50;8.30;;;;;;;;;;5068582;28;20035;-56
2024/02/29 05:16:05;;;;;;;23.95;7.93;;;;;;;;;;5065455;28;20033;-59
2024/02/29 05:18:31;;;;;;;17.88;6.95;;;;;;;;;;5067208;28;20044;-57
2024/02/29 05:20:57;;;;;;;24.40;7.97;;;;;;;;;;5076710;28;20032;-58
2024/02/29 05:23:23;;;;;;;20.35;7.55;;;;;;;;;;5069974;28;20043;-59
2024/02/29 05:25:49;;;;;;;28.98;9.25;;;;;;;;;;5069879;28;20120;-60
2024/02/29 05:28:15;;;;;;;19.95;8.27;;;;;;;;;;5066688;28;20100;-59
2024/02/29 05:30:42;;;;;;;23.65;8.68;;;;;;;;;;5065705;28;20028;-57
2024/02/29 05:33:08;;;;;;;23.38;7.78;;;;;;;;;;5069339;28;20075;-60
2024/02/29 05:35:34;;;;;;;25.58;9.18;;;;;;;;;;5066790;28;20048;-59
2024/02/29 05:38:00;;;;;;;20.17;7.70;;;;;;;;;;5071168;28;20545;-57
2024/02/29 05:40:27;;;;;;;23.00;8.40;;;;;;;;;;5066835;28;20047;-55
2024/02/29 05:42:53;;;;;;;18.83;7.45;;;;;;;;;;5068067;28;20608;-60
2024/02/29 05:45:19;;;;;;;26.48;8.43;;;;;;;;;;5073893;28;20032;-59
2024/02/29 05:47:45;;;;;;;28.08;9.45;;;;;;;;;;5062321;28;20033;-58
2024/02/29 05:50:11;;;;;;;29.58;10.63;;;;;;;;;;5065617;28;20082;-59
2024/02/29 05:52:37;;;;;;;28.98;9.85;;;;;;;;;;5071132;28;20033;-56
2024/02/29 05:55:03;;;;;;;24.08;8.63;;;;;;;;;;5068601;28;20406;-60
2024/02/29 05:57:31;;;;;;;33.75;9.38;;;;;;;;;;5067114;28;20040;-60
2024/02/29 05:59:57;;;;;;;26.88;8.45;;;;;;;;;;5071114;28;20135;-59
2024/02/29 06:02:23;;;;;;;30.58;11.18;;;;;;;;;;5070811;28;20032;-58
2024/02/29 06:04:49;;;;;;;26.75;9.27;;;;;;;;;;5076006;28;20039;-57
2024/02/29 06:07:15;;;;;;;27.60;8.65;;;;;;;;;;5070986;28;20170;-58
2024/02/29 06:09:41;;;;;;;27.30;8.40;;;;;;;;;;5073485;28;20107;-59
2024/02/29 06:12:07;;;;;;;38.50;10.10;;;;;;;;;;5068530;28;20543;-55
2024/02/29 06:14:34;;;;;;;30.00;8.65;;;;;;;;;;5070538;28;20025;-58
2024/02/29 06:17:01;;;;;;;23.00;9.13;;;;;;;;;;5074643;28;20048;-57
2024/02/29 06:19:27;;;;;;;23.65;8.00;;;;;;;;;;5068743;28;20067;-58
2024/02/29 06:21:53;;;;;;;25.38;8.95;;;;;;;;;;5069454;28;20036;-56
2024/02/29 06:24:19;;;;;;;18.60;7.88;;;;;;;;;;5073069;28;20032;-59
2024/02/29 06:26:46;;;;;;;27.23;9.20;;;;;;;;;;5071917;28;20089;-57
2024/02/29 06:29:12;;;;;;;32.47;9.57;;;;;;;;;;5070027;28;20433;-60
2024/02/29 06:31:38;;;;;;;35.88;10.68;;;;;;;;;;5066471;28;20106;-58
2024/02/29 06:34:04;;;;;;;24.98;9.80;;;;;;;;;;5070979;28;20107;-59
2024/02/29 06:36:30;;;;;;;29.00;10.35;;;;;;;;;;5074178;28;20025;-59
2024/02/29 06:38:56;;;;;;;27.60;8.98;;;;;;;;;;5072100;28;20025;-60
2024/02/29 06:41:22;;;;;;;24.00;8.77;;;;;;;;;;5070618;28;20025;-59
2024/02/29 06:43:48;;;;;;;28.13;10.32;;;;;;;;;;5071078;28;20032;-58
2024/02/29 06:46:14;;;;;;;22.77;8.55;;;;;;;;;;5070203;28;20028;-59
2024/02/29 06:48:40;;;;;;;22.75;9.10;;;;;;;;;;5066796;28;20048;-61
2024/02/29 06:51:06;;;;;;;23.15;7.50;;;;;;;;;;5067257;28;20029;-61
2024/02/29 06:53:32;;;;;;;32.08;10.70;;;;;;;;;;5068370;28;20041;-62
2024/02/29 06:55:58;;;;;;;32.17;8.68;;;;;;;;;;5072409;28;20025;-58
2024/02/29 06:58:24;;;;;;;24.70;8.68;;;;;;;;;;5065886;28;20082;-61
2024/02/29 07:00:49;;;;;;;27.20;9.23;;;;;;;;;;5078558;28;20056;-60
2024/02/29 07:03:15;;;;;;;27.38;9.15;;;;;;;;;;5073247;28;20028;-61
2024/02/29 07:05:41;;;;;;;22.65;7.82;;;;;;;;;;5070370;28;20524;-61
2024/02/29 07:08:09;;;;;;;23.23;8.27;;;;;;;;;;5071120;28;20124;-60
2024/02/29 07:10:35;;;;;;;26.08;7.95;;;;;;;;;;5072920;28;20020;-60
2024/02/29 07:13:01;;;;;;;25.88;8.63;;;;;;;;;;5069831;28;20039;-62
2024/02/29 07:15:27;;;;;;;23.08;7.30;;;;;;;;;;5071731;28;20401;-58
2024/02/29 07:17:54;;;;;;;22.65;8.57;;;;;;;;;;5066343;28;20021;-60
2024/02/29 07:20:20;;;;;;;22.33;8.15;;;;;;;;;;5069986;28;20024;-60
2024/02/29 07:22:46;;;;;;;22.52;7.80;;;;;;;;;;5071043;28;20035;-61
2024/02/29 07:25:12;;;;;;;18.45;7.18;;;;;;;;;;5070673;28;20040;-60
2024/02/29 07:27:39;;;;;;;22.77;8.13;;;;;;;;;;5068757;28;20060;-60
2024/02/29 07:30:07;;;;;;;21.90;7.55;;;;;;;;;;5070197;28;20113;-62
2024/02/29 07:32:33;;;;;;;22.40;8.52;;;;;;;;;;5066999;28;20078;-61
2024/02/29 07:34:59;;;;;;;21.52;7.57;;;;;;;;;;5072333;28;20028;-59
2024/02/29 07:37:25;;;;;;;26.77;9.00;;;;;;;;;;5071968;28;20035;-61
2024/02/29 07:39:50;;;;;;;24.38;8.48;;;;;;;;;;5070546;28;20029;-58
2024/02/29 07:42:17;;;;;;;22.67;7.25;;;;;;;;;;5073556;28;20066;-60
2024/02/29 07:44:43;;;;;;;21.10;7.78;;;;;;;;;;5070436;28;20514;-60
2024/02/29 07:47:09;;;;;;;22.40;8.40;;;;;;;;;;5074666;28;20028;-61
2024/02/29 07:49:35;;;;;;;25.85;7.90;;;;;;;;;;5071633;28;20021;-59
2024/02/29 07:52:01;;;;;;;22.42;7.50;;;;;;;;;;5081667;28;20032;-60
2024/02/29 07:54:27;;;;;;;21.15;7.60;;;;;;;;;;5065800;28;20135;-62
2024/02/29 07:56:53;;;;;;;23.92;7.97;;;;;;;;;;5068668;28;20112;-60
2024/02/29 07:59:19;;;;;;;23.23;8.50;;;;;;;;;;5070647;28;20378;-61
2024/02/29 08:01:44;;;;;;;18.05;7.63;;;;;;;;;;5068605;28;20421;-59
2024/02/29 08:04:11;;;;;;;15.77;5.97;;;;;;;;;;5075254;28;20050;-61
2024/02/29 08:06:37;;;;;;;17.25;5.60;;;;;;;;;;5069127;28;20024;-60
2024/02/29 08:09:05;;;;;;;23.20;6.57;;;;;;;;;;5070925;28;20177;-60
2024/02/29 08:11:31;;;;;;;16.58;6.38;;;;;;;;;;5067288;28;20101;-60
2024/02/29 08:13:56;;;;;;;19.23;6.57;;;;;;;;;;5069710;28;20071;-60
2024/02/29 08:16:22;;;;;;;13.02;6.03;;;;;;;;;;5073601;28;20069;-60
2024/02/29 08:18:48;;;;;;;30.52;8.07;;;;;;;;;;5065842;28;20028;-62
2024/02/29 08:21:14;;;;;;;16.88;7.18;;;;;;;;;;5071078;28;20382;-60
2024/02/29 08:23:40;;;;;;;21.08;8.63;;;;;;;;;;5064230;28;20029;-61
2024/02/29 08:26:07;;;;;;;19.73;6.35;;;;;;;;;;5077493;28;20578;-60
2024/02/29 08:28:33;;;;;;;12.57;6.35;;;;;;;;;;5067485;28;20044;-59
2024/02/29 08:30:59;;;;;;;22.00;6.88;;;;;;;;;;5060689;28;20036;-59
2024/02/29 08:33:25;;;;;;;15.88;6.50;;;;;;;;;;5061331;28;20028;-61
2024/02/29 08:35:51;;;;;;;15.77;5.65;;;;;;;;;;5068517;28;20025;-59
2024/02/29 08:38:17;;;;;;;18.63;6.72;;;;;;;;;;5066582;28;20116;-59
2024/02/29 08:40:43;;;;;;;14.25;6.82;;;;;;;;;;5068155;28;20024;-60
2024/02/29 08:43:09;;;;;;;19.67;5.82;;;;;;;;;;5069397;28;20077;-58
2024/02/29 08:45:35;;;;;;;16.92;5.65;;;;;;;;;;5064411;28;20031;-59
2024/02/29 08:48:01;;;;;;;20.02;7.60;;;;;;;;;;5066492;28;20132;-62
2024/02/29 08:50:27;;;;;;;23.88;7.28;;;;;;;;;;5066732;28;20032;-60
2024/02/29 08:52:53;;;;;;;13.57;6.05;;;;;;;;;;5067875;28;20042;-61
2024/02/29 08:55:20;;;;;;;14.43;6.28;;;;;;;;;;5071980;28;20510;-61
2024/02/29 08:57:46;;;;;;;18.02;5.75;;;;;;;;;;5064529;28;20478;-60
2024/02/29 09:00:12;;;;;;;17.60;6.57;;;;;;;;;;5063891;28;20131;-65
2024/02/29 09:02:38;;;;;;;12.98;5.75;;;;;;;;;;5067154;28;20368;-60
2024/02/29 09:05:04;;;;;;;13.32;4.72;;;;;;;;;;5046779;28;20036;-61
2024/02/29 09:07:30;;;;;;;16.10;5.60;;;;;;;;;;5064127;28;20923;-60
2024/02/29 09:09:56;;;;;;;13.77;5.68;;;;;;;;;;5070483;28;20074;-61
2024/02/29 09:12:23;;;;;;;16.63;7.35;;;;;;;;;;5063555;28;20032;-60
2024/02/29 09:14:49;;;;;;;13.18;5.55;;;;;;;;;;5067565;28;20020;-60
2024/02/29 09:17:15;;;;;;;19.00;5.47;;;;;;;;;;5071918;28;20044;-59
2024/02/29 09:19:41;;;;;;;13.98;6.07;;;;;;;;;;5066520;28;20390;-61
2024/02/29 09:22:07;;;;;;;18.25;5.97;;;;;;;;;;5068681;28;20066;-61
2024/02/29 09:24:33;;;;;;;15.20;5.75;;;;;;;;;;5060129;28;20103;-61
2024/02/29 09:26:59;;;;;;;16.38;5.45;;;;;;;;;;5073308;28;20029;-62
2024/02/29 09:29:25;;;;;;;12.65;5.78;;;;;;;;;;5069210;28;20028;-60
2024/02/29 09:31:51;;;;;;;15.00;5.65;;;;;;;;;;5069649;28;20082;-60
2024/02/29 09:34:16;;;;;;;17.65;5.90;;;;;;;;;;5062679;28;20082;-58
2024/02/29 09:36:45;;;;;;;18.27;5.38;;;;;;;;;;5069247;28;20072;-60
2024/02/29 09:39:11;;;;;;;15.88;5.95;;;;;;;;;;5064878;28;20027;-61
2024/02/29 09:41:37;;;;;;;11.52;4.82;;;;;;;;;;5078978;28;20072;-61
2024/02/29 09:44:03;;;;;;;10.15;4.53;;;;;;;;;;5068132;28;20028;-60
2024/02/29 09:46:29;;;;;;;14.43;5.43;;;;;;;;;;5083137;28;20028;-60
2024/02/29 09:48:57;;;;;;;13.80;5.13;;;;;;;;;;5075101;28;20020;-58
2024/02/29 09:51:23;;;;;;;12.13;5.47;;;;;;;;;;5075784;28;20039;-61
2024/02/29 09:53:54;;;;;;;13.07;4.38;;;;;;;;;;5070914;28;20024;-61
2024/02/29 09:56:25;;;;;;;15.75;5.22;;;;;;;;;;5069599;28;20017;-59
2024/02/29 09:58:54;;;;;;;9.65;3.95;;;;;;;;;;5073237;28;20047;-58
2024/02/29 10:01:20;;;;;;;10.13;4.03;;;;;;;;;;5073309;28;20032;-59
2024/02/29 10:03:46;;;;;;;10.23;3.45;;;;;;;;;;5074369;28;20032;-59
2024/02/29 10:06:12;;;;;;;10.77;3.58;;;;;;;;;;5072870;28;20032;-60
2024/02/29 10:08:39;;;;;;;8.57;4.15;;;;;;;;;;5073581;28;20495;-60
2024/02/29 10:11:05;;;;;;;6.35;3.47;;;;;;;;;;5072626;28;20122;-60
2024/02/29 10:13:38;;;;;;;8.23;2.97;;;;;;;;;;5065236;28;20051;-60
2024/02/29 10:16:06;;;;;;;9.32;3.22;;;;;;;;;;5061648;28;20358;-56
2024/02/29 10:18:33;;;;;;;7.40;3.28;;;;;;;;;;5076210;28;20035;-60
2024/02/29 10:20:59;;;;;;;8.68;3.85;;;;;;;;;;5073316;28;20032;-60
2024/02/29 10:23:27;;;;;;;5.95;2.92;;;;;;;;;;5068713;28;20029;-61
2024/02/29 10:25:53;;;;;;;8.02;3.42;;;;;;;;;;5073099;28;20629;-62
2024/02/29 10:28:19;;;;;;;10.10;4.18;;;;;;;;;;5075442;28;20043;-61
2024/02/29 10:30:57;;;;;;;9.30;3.85;;;;;;;;;;5068861;28;20025;-60
2024/02/29 10:33:23;;;;;;;10.15;3.28;;;;;;;;;;5068387;28;20032;-60
2024/02/29 10:35:50;;;;;;;7.38;3.08;;;;;;;;;;5070131;28;20032;-59
2024/02/29 10:38:16;;;;;;;8.23;3.55;;;;;;;;;;5066864;28;20024;-61
2024/02/29 10:40:42;;;;;;;7.47;3.47;;;;;;;;;;5072841;28;20032;-61
2024/02/29 10:43:11;;;;;;;9.38;3.97;;;;;;;;;;5073164;28;20028;-59
2024/02/29 10:45:46;;;;;;;6.18;2.65;;;;;;;;;;5068355;28;20652;-60
2024/02/29 10:48:15;;;;;;;9.35;2.78;;;;;;;;;;5067065;28;20021;-62
2024/02/29 10:50:46;;;;;;;4.72;2.78;;;;;;;;;;5071251;28;20035;-59
2024/02/29 10:53:19;;;;;;;12.27;3.58;;;;;;;;;;5068977;28;20065;-60
2024/02/29 10:55:51;;;;;;;10.52;4.53;;;;;;;;;;5065209;28;20025;-61
2024/02/29 10:58:23;;;;;;;7.40;4.43;;;;;;;;;;5068992;28;20426;-61
2024/02/29 11:00:50;;;;;;;10.98;3.88;;;;;;;;;;5064220;28;20547;-61
2024/02/29 11:03:17;;;;;;;10.55;4.60;;;;;;;;;;5070671;28;20031;-61
2024/02/29 11:05:45;;;;;;;8.80;4.15;;;;;;;;;;5068967;28;20025;-61
2024/02/29 11:08:11;;;;;;;9.45;3.47;;;;;;;;;;5064221;28;20024;-59
2024/02/29 11:10:38;;;;;;;16.15;4.47;;;;;;;;;;5067718;28;20028;-60
2024/02/29 11:13:04;;;;;;;11.27;3.97;;;;;;;;;;5068644;28;20107;-59
2024/02/29 11:15:31;;;;;;;8.23;3.42;;;;;;;;;;5067212;28;20022;-60
2024/02/29 11:18:00;;;;;;;8.70;3.63;;;;;;;;;;5071904;28;20056;-61
2024/02/29 11:20:27;;;;;;;9.05;4.28;;;;;;;;;;5067751;28;20027;-59
2024/02/29 11:23:03;;;;;;;12.30;4.65;;;;;;;;;;5069011;28;20069;-59
2024/02/29 11:25:30;;;;;;;12.98;4.95;;;;;;;;;;5069626;28;20393;-60
2024/02/29 11:27:56;;;;;;;11.75;5.07;;;;;;;;;;5068463;28;20025;-59
2024/02/29 11:30:23;;;;;;;9.27;4.15;;;;;;;;;;5073959;28;20036;-59
2024/02/29 11:32:50;;;;;;;8.48;3.42;;;;;;;;;;5069011;28;20583;-58
2024/02/29 11:35:16;;;;;;;10.05;4.45;;;;;;;;;;5071807;28;20035;-60
2024/02/29 11:37:43;;;;;;;11.02;5.10;;;;;;;;;;5071014;28;20490;-59
2024/02/29 11:40:11;;;;;;;6.47;3.30;;;;;;;;;;5070077;28;20028;-59
2024/02/29 11:42:38;;;;;;;10.05;3.95;;;;;;;;;;5068997;28;20020;-60
2024/02/29 11:45:04;;;;;;;9.45;3.65;;;;;;;;;;5068353;28;20755;-60
2024/02/29 11:47:30;;;;;;;8.02;3.85;;;;;;;;;;5072168;28;20032;-61
2024/02/29 11:50:00;;;;;;;10.27;3.58;;;;;;;;;;5069343;28;20058;-61
2024/02/29 11:52:26;;;;;;;10.07;3.63;;;;;;;;;;5067952;28;20056;-58
2024/02/29 11:54:52;;;;;;;9.70;3.83;;;;;;;;;;5062707;28;20096;-59
2024/02/29 11:57:18;;;;;;;13.15;5.03;;;;;;;;;;5074315;28;20035;-59
2024/02/29 11:59:44;;;;;;;9.02;3.92;;;;;;;;;;5068413;28;20040;-60
2024/02/29 12:02:10;;;;;;;7.82;3.30;;;;;;;;;;5054715;28;20059;-59
2024/02/29 12:04:36;;;;;;;11.20;4.68;;;;;;;;;;5067727;28;20544;-58
2024/02/29 12:07:03;;;;;;;8.43;3.50;;;;;;;;;;5071813;28;20100;-60
2024/02/29 12:09:32;;;;;;;9.02;3.58;;;;;;;;;;5068131;28;20025;-61
2024/02/29 12:11:58;;;;;;;8.85;3.88;;;;;;;;;;5066667;28;20395;-60
2024/02/29 12:14:25;;;;;;;9.63;3.42;;;;;;;;;;5066997;28;20028;-60
2024/02/29 12:16:51;;;;;;;8.55;3.22;;;;;;;;;;5074576;28;20474;-60
2024/02/29 12:19:17;;;;;;;8.48;3.88;;;;;;;;;;5067335;28;20624;-60
2024/02/29 12:21:46;;;;;;;6.22;2.80;;;;;;;;;;5068750;28;20040;-60
2024/02/29 12:24:12;;;;;;;6.22;2.47;;;;;;;;;;5071088;28;20035;-61
2024/02/29 12:26:40;;;;;;;9.25;3.92;;;;;;;;;;5076645;28;20008;-60
2024/02/29 12:29:07;;;;;;;7.25;3.60;;;;;;;;;;5067151;28;20078;-61
2024/02/29 12:31:33;;;;;;;7.95;2.90;;;;;;;;;;5069568;28;20103;-59
2024/02/29 12:34:00;;;;;;;7.68;3.05;;;;;;;;;;5070056;28;20032;-60
2024/02/29 12:36:27;;;;;;;6.55;3.33;;;;;;;;;;5070541;28;20024;-58
2024/02/29 12:38:53;;;;;;;13.95;3.80;;;;;;;;;;5069447;28;20028;-60
2024/02/29 12:41:19;;;;;;;8.75;3.10;;;;;;;;;;5077550;28;20078;-56
2024/02/29 12:43:48;;;;;;;7.78;2.97;;;;;;;;;;5060926;28;20032;-58
2024/02/29 12:46:18;;;;;;;9.23;3.30;;;;;;;;;;5059488;28;20078;-59
2024/02/29 12:48:45;;;;;;;10.43;4.00;;;;;;;;;;5066193;28;20102;-60
2024/02/29 12:51:12;;;;;;;6.65;3.03;;;;;;;;;;5069716;28;20426;-61
2024/02/29 12:53:38;;;;;;;6.57;3.60;;;;;;;;;;5066286;28;20086;-60
2024/02/29 12:56:05;;;;;;;10.95;3.58;;;;;;;;;;5051815;28;20047;-61
2024/02/29 12:58:31;;;;;;;5.97;3.63;;;;;;;;;;5069043;28;20066;-58
2024/02/29 13:00:59;;;;;;;10.82;3.28;;;;;;;;;;5075464;28;20104;-60
2024/02/29 13:03:25;;;;;;;5.50;2.50;;;;;;;;;;5067496;28;20024;-60
2024/02/29 13:05:51;;;;;;;12.35;3.03;;;;;;;;;;5070507;28;20108;-62
2024/02/29 13:08:17;;;;;;;9.60;3.20;;;;;;;;;;5066481;28;20103;-59
2024/02/29 13:10:43;;;;;;;8.48;2.88;;;;;;;;;;5074810;28;20017;-61
2024/02/29 13:13:09;;;;;;;5.68;2.58;;;;;;;;;;5045624;28;20533;-62
2024/02/29 13:15:35;;;;;;;8.23;2.90;;;;;;;;;;5062673;28;20490;-61
2024/02/29 13:18:01;;;;;;;8.07;3.08;;;;;;;;;;5066933;28;20120;-61
2024/02/29 13:20:27;;;;;;;12.23;3.92;;;;;;;;;;5069083;28;20020;-61
2024/02/29 13:22:53;;;;;;;7.32;3.63;;;;;;;;;;5068057;28;20454;-60
2024/02/29 13:25:19;;;;;;;8.93;4.03;;;;;;;;;;5052494;28;20474;-58
2024/02/29 13:27:45;;;;;;;11.40;2.85;;;;;;;;;;5070470;28;20028;-60
2024/02/29 13:30:11;;;;;;;5.43;2.75;;;;;;;;;;5067532;28;20035;-59
2024/02/29 13:32:36;;;;;;;6.65;3.17;;;;;;;;;;5067112;28;20025;-61
2024/02/29 13:35:03;;;;;;;5.50;2.30;;;;;;;;;;5062049;28;20475;-57
2024/02/29 13:37:29;;;;;;;9.45;3.17;;;;;;;;;;5067353;28;20028;-62
2024/02/29 13:39:55;;;;;;;5.85;2.80;;;;;;;;;;5067704;28;20021;-57
2024/02/29 13:42:21;;;;;;;10.35;3.63;;;;;;;;;;5068962;28;20024;-62
2024/02/29 13:44:47;;;;;;;4.55;2.28;;;;;;;;;;5064468;28;20112;-57
2024/02/29 13:47:13;;;;;;;7.95;3.05;;;;;;;;;;5074269;28;20138;-58
2024/02/29 13:49:39;;;;;;;5.22;2.67;;;;;;;;;;5068484;28;20042;-61
2024/02/29 13:52:06;;;;;;;7.35;2.30;;;;;;;;;;5071773;28;20115;-61
2024/02/29 13:54:32;;;;;;;6.25;2.28;;;;;;;;;;5066470;28;20053;-60
2024/02/29 13:56:59;;;;;;;7.70;2.33;;;;;;;;;;5067015;28;20447;-58
2024/02/29 13:59:27;;;;;;;5.43;2.30;;;;;;;;;;5061265;28;20387;-60
2024/02/29 14:01:53;;;;;;;5.97;2.60;;;;;;;;;;5062171;28;20084;-61
2024/02/29 14:04:19;;;;;;;8.68;2.30;;;;;;;;;;5067023;28;20455;-59
2024/02/29 14:06:45;;;;;;;3.38;1.58;;;;;;;;;;5077223;28;20490;-61
2024/02/29 14:09:13;;;;;;;2.08;0.73;;;;;;;;;;5063898;28;20774;-58
2024/02/29 14:11:39;;;;;;;2.60;1.42;;;;;;;;;;5066206;28;20084;-60
2024/02/29 14:14:05;;;;;;;1.92;0.90;;;;;;;;;;5067097;28;20178;-57
2024/02/29 14:16:31;;;;;;;1.35;0.90;;;;;;;;;;5065415;28;20029;-59
2024/02/29 14:18:57;;;;;;;7.07;1.67;;;;;;;;;;5066374;28;20077;-61
2024/02/29 14:21:23;;;;;;;4.30;1.42;;;;;;;;;;5063430;28;20502;-57
2024/02/29 14:23:50;;;;;;;0.90;0.68;;;;;;;;;;5065880;28;20037;-61
2024/02/29 14:26:17;;;;;;;7.57;1.30;;;;;;;;;;5069317;28;20024;-59
2024/02/29 14:28:43;;;;;;;1.13;0.77;;;;;;;;;;5067104;28;20032;-61